sensor_id;sensor_type;location;lat;lon;timestamp;P1;durP1;ratioP1;P2;durP2;ratioP2
57331;SDS011;43164;50.908;18.092;2023-11-21T00:01:10;6.30;;;1.60;;
57331;SDS011;43164;50.908;18.092;2023-11-21T00:03:38;5.00;;;1.40;;
57331;SDS011;43164;50.908;18.092;2023-11-21T00:06:06;4.60;;;1.50;;
57331;SDS011;43164;50.908;18.092;2023-11-21T00:08:35;4.50;;;1.40;;
57331;SDS011;43164;50.908;18.092;2023-11-21T00:11:03;5.60;;;1.40;;
57331;SDS011;43164;50.908;18.092;2023-11-21T00:13:31;4.80;;;1.40;;
57331;SDS011;43164;50.908;18.092;2023-11-21T00:15:59;2.60;;;1.10;;
57331;SDS011;43164;50.908;18.092;2023-11-21T00:18:27;3.40;;;1.40;;
57331;SDS011;43164;50.908;18.092;2023-11-21T00:20:55;4.30;;;1.30;;
57331;SDS011;43164;50.908;18.092;2023-11-21T00:23:25;5.10;;;1.10;;
57331;SDS011;43164;50.908;18.092;2023-11-21T00:25:52;4.60;;;1.30;;
57331;SDS011;43164;50.908;18.092;2023-11-21T00:28:19;5.10;;;1.70;;
57331;SDS011;43164;50.908;18.092;2023-11-21T00:30:47;5.40;;;1.40;;
57331;SDS011;43164;50.908;18.092;2023-11-21T00:33:15;3.40;;;1.20;;
57331;SDS011;43164;50.908;18.092;2023-11-21T00:35:43;4.40;;;1.30;;
57331;SDS011;43164;50.908;18.092;2023-11-21T00:38:12;3.50;;;1.00;;
57331;SDS011;43164;50.908;18.092;2023-11-21T00:40:40;3.80;;;1.20;;
57331;SDS011;43164;50.908;18.092;2023-11-21T00:43:08;6.40;;;1.40;;
57331;SDS011;43164;50.908;18.092;2023-11-21T00:45:45;3.80;;;1.10;;
57331;SDS011;43164;50.908;18.092;2023-11-21T00:48:17;3.70;;;1.10;;
57331;SDS011;43164;50.908;18.092;2023-11-21T00:50:44;4.60;;;1.10;;
57331;SDS011;43164;50.908;18.092;2023-11-21T00:53:13;5.40;;;1.10;;
57331;SDS011;43164;50.908;18.092;2023-11-21T00:55:41;3.50;;;0.90;;
57331;SDS011;43164;50.908;18.092;2023-11-21T00:58:08;3.00;;;1.00;;
57331;SDS011;43164;50.908;18.092;2023-11-21T01:00:37;4.00;;;0.90;;
57331;SDS011;43164;50.908;18.092;2023-11-21T01:03:06;2.20;;;0.90;;
57331;SDS011;43164;50.908;18.092;2023-11-21T01:05:35;4.00;;;1.00;;
57331;SDS011;43164;50.908;18.092;2023-11-21T01:08:03;3.00;;;0.90;;
57331;SDS011;43164;50.908;18.092;2023-11-21T01:10:32;5.50;;;1.00;;
57331;SDS011;43164;50.908;18.092;2023-11-21T01:13:02;3.00;;;1.00;;
57331;SDS011;43164;50.908;18.092;2023-11-21T01:15:36;3.70;;;0.90;;
57331;SDS011;43164;50.908;18.092;2023-11-21T01:18:08;3.70;;;1.00;;
57331;SDS011;43164;50.908;18.092;2023-11-21T01:20:49;4.50;;;1.20;;
57331;SDS011;43164;50.908;18.092;2023-11-21T01:23:16;4.20;;;1.10;;
57331;SDS011;43164;50.908;18.092;2023-11-21T01:25:44;2.40;;;0.80;;
57331;SDS011;43164;50.908;18.092;2023-11-21T01:28:12;3.30;;;0.90;;
57331;SDS011;43164;50.908;18.092;2023-11-21T01:30:40;3.90;;;1.00;;
57331;SDS011;43164;50.908;18.092;2023-11-21T01:33:08;4.40;;;1.00;;
57331;SDS011;43164;50.908;18.092;2023-11-21T01:35:36;5.10;;;0.80;;
57331;SDS011;43164;50.908;18.092;2023-11-21T01:38:04;4.80;;;1.20;;
57331;SDS011;43164;50.908;18.092;2023-11-21T01:40:32;3.20;;;1.20;;
57331;SDS011;43164;50.908;18.092;2023-11-21T01:43:00;5.70;;;1.40;;
57331;SDS011;43164;50.908;18.092;2023-11-21T01:45:29;3.30;;;1.10;;
57331;SDS011;43164;50.908;18.092;2023-11-21T01:47:59;5.10;;;1.30;;
57331;SDS011;43164;50.908;18.092;2023-11-21T01:50:27;4.50;;;1.40;;
57331;SDS011;43164;50.908;18.092;2023-11-21T01:52:54;4.70;;;1.40;;
57331;SDS011;43164;50.908;18.092;2023-11-21T01:55:22;4.40;;;1.00;;
57331;SDS011;43164;50.908;18.092;2023-11-21T01:57:50;5.50;;;1.20;;
57331;SDS011;43164;50.908;18.092;2023-11-21T02:00:18;6.90;;;1.10;;
57331;SDS011;43164;50.908;18.092;2023-11-21T02:02:46;4.30;;;1.50;;
57331;SDS011;43164;50.908;18.092;2023-11-21T02:05:18;6.30;;;1.30;;
57331;SDS011;43164;50.908;18.092;2023-11-21T02:07:47;5.10;;;1.20;;
57331;SDS011;43164;50.908;18.092;2023-11-21T02:10:16;4.00;;;1.10;;
57331;SDS011;43164;50.908;18.092;2023-11-21T02:13:06;5.00;;;1.10;;
57331;SDS011;43164;50.908;18.092;2023-11-21T02:15:34;3.90;;;1.40;;
57331;SDS011;43164;50.908;18.092;2023-11-21T02:18:02;4.10;;;0.90;;
57331;SDS011;43164;50.908;18.092;2023-11-21T02:20:30;5.60;;;1.40;;
57331;SDS011;43164;50.908;18.092;2023-11-21T02:22:58;4.40;;;1.30;;
57331;SDS011;43164;50.908;18.092;2023-11-21T02:25:26;3.40;;;1.10;;
57331;SDS011;43164;50.908;18.092;2023-11-21T02:28:05;3.80;;;1.10;;
57331;SDS011;43164;50.908;18.092;2023-11-21T02:30:32;4.00;;;1.30;;
57331;SDS011;43164;50.908;18.092;2023-11-21T02:33:01;3.20;;;1.10;;
57331;SDS011;43164;50.908;18.092;2023-11-21T02:35:39;5.40;;;1.30;;
57331;SDS011;43164;50.908;18.092;2023-11-21T02:38:08;4.50;;;1.40;;
57331;SDS011;43164;50.908;18.092;2023-11-21T02:43:27;4.10;;;1.10;;
57331;SDS011;43164;50.908;18.092;2023-11-21T02:46:08;5.40;;;1.30;;
57331;SDS011;43164;50.908;18.092;2023-11-21T02:48:36;4.00;;;1.40;;
57331;SDS011;43164;50.908;18.092;2023-11-21T02:51:04;3.40;;;1.30;;
57331;SDS011;43164;50.908;18.092;2023-11-21T02:53:32;4.30;;;1.20;;
57331;SDS011;43164;50.908;18.092;2023-11-21T02:58:56;5.70;;;1.40;;
57331;SDS011;43164;50.908;18.092;2023-11-21T03:01:24;2.80;;;1.10;;
57331;SDS011;43164;50.908;18.092;2023-11-21T03:03:52;5.70;;;1.10;;
57331;SDS011;43164;50.908;18.092;2023-11-21T03:06:22;3.50;;;1.20;;
57331;SDS011;43164;50.908;18.092;2023-11-21T03:08:49;7.50;;;1.20;;
57331;SDS011;43164;50.908;18.092;2023-11-21T03:11:17;5.20;;;1.50;;
57331;SDS011;43164;50.908;18.092;2023-11-21T03:13:46;5.70;;;1.60;;
57331;SDS011;43164;50.908;18.092;2023-11-21T03:20:09;4.30;;;1.30;;
57331;SDS011;43164;50.908;18.092;2023-11-21T03:22:38;4.80;;;1.20;;
57331;SDS011;43164;50.908;18.092;2023-11-21T03:25:06;8.20;;;1.50;;
57331;SDS011;43164;50.908;18.092;2023-11-21T03:33:02;5.70;;;1.50;;
57331;SDS011;43164;50.908;18.092;2023-11-21T03:35:59;4.50;;;1.20;;
57331;SDS011;43164;50.908;18.092;2023-11-21T03:38:26;3.20;;;1.10;;
57331;SDS011;43164;50.908;18.092;2023-11-21T03:43:50;4.00;;;1.10;;
57331;SDS011;43164;50.908;18.092;2023-11-21T03:46:17;5.10;;;1.10;;
57331;SDS011;43164;50.908;18.092;2023-11-21T03:48:45;3.60;;;1.00;;
57331;SDS011;43164;50.908;18.092;2023-11-21T03:51:13;3.80;;;1.10;;
57331;SDS011;43164;50.908;18.092;2023-11-21T03:59:28;3.50;;;1.00;;
57331;SDS011;43164;50.908;18.092;2023-11-21T04:02:03;5.30;;;1.00;;
57331;SDS011;43164;50.908;18.092;2023-11-21T04:04:32;4.80;;;1.00;;
57331;SDS011;43164;50.908;18.092;2023-11-21T04:10:06;4.00;;;1.10;;
57331;SDS011;43164;50.908;18.092;2023-11-21T04:12:35;3.30;;;1.00;;
57331;SDS011;43164;50.908;18.092;2023-11-21T04:15:02;2.90;;;0.90;;
57331;SDS011;43164;50.908;18.092;2023-11-21T04:20:21;3.90;;;1.10;;
57331;SDS011;43164;50.908;18.092;2023-11-21T04:23:00;3.00;;;1.10;;
57331;SDS011;43164;50.908;18.092;2023-11-21T04:28:33;4.00;;;1.00;;
57331;SDS011;43164;50.908;18.092;2023-11-21T04:31:02;4.10;;;1.00;;
57331;SDS011;43164;50.908;18.092;2023-11-21T04:33:30;2.90;;;0.90;;
57331;SDS011;43164;50.908;18.092;2023-11-21T04:35:59;5.40;;;1.30;;
57331;SDS011;43164;50.908;18.092;2023-11-21T04:38:27;3.20;;;0.90;;
57331;SDS011;43164;50.908;18.092;2023-11-21T04:40:55;4.40;;;1.30;;
57331;SDS011;43164;50.908;18.092;2023-11-21T04:43:35;3.80;;;1.10;;
57331;SDS011;43164;50.908;18.092;2023-11-21T04:46:17;3.00;;;0.90;;
57331;SDS011;43164;50.908;18.092;2023-11-21T04:48:59;3.30;;;0.90;;
57331;SDS011;43164;50.908;18.092;2023-11-21T04:51:40;3.30;;;1.00;;
57331;SDS011;43164;50.908;18.092;2023-11-21T04:54:07;3.30;;;1.20;;
57331;SDS011;43164;50.908;18.092;2023-11-21T04:59:28;3.80;;;1.40;;
57331;SDS011;43164;50.908;18.092;2023-11-21T05:04:42;3.80;;;1.20;;
57331;SDS011;43164;50.908;18.092;2023-11-21T05:07:13;5.30;;;1.20;;
57331;SDS011;43164;50.908;18.092;2023-11-21T05:15:24;5.60;;;1.40;;
57331;SDS011;43164;50.908;18.092;2023-11-21T05:17:56;4.50;;;1.40;;
57331;SDS011;43164;50.908;18.092;2023-11-21T05:26:00;6.70;;;1.80;;
57331;SDS011;43164;50.908;18.092;2023-11-21T05:28:30;6.30;;;1.90;;
57331;SDS011;43164;50.908;18.092;2023-11-21T05:30:58;4.30;;;1.40;;
57331;SDS011;43164;50.908;18.092;2023-11-21T05:36:38;5.00;;;2.00;;
57331;SDS011;43164;50.908;18.092;2023-11-21T05:39:06;5.30;;;1.70;;
57331;SDS011;43164;50.908;18.092;2023-11-21T05:44:23;6.20;;;2.10;;
57331;SDS011;43164;50.908;18.092;2023-11-21T05:46:50;6.50;;;2.00;;
57331;SDS011;43164;50.908;18.092;2023-11-21T05:49:20;6.40;;;1.80;;
57331;SDS011;43164;50.908;18.092;2023-11-21T05:52:02;10.00;;;2.10;;
57331;SDS011;43164;50.908;18.092;2023-11-21T06:00:50;5.60;;;1.70;;
57331;SDS011;43164;50.908;18.092;2023-11-21T06:03:18;6.00;;;1.90;;
57331;SDS011;43164;50.908;18.092;2023-11-21T06:05:46;5.60;;;2.00;;
57331;SDS011;43164;50.908;18.092;2023-11-21T06:08:13;6.60;;;1.60;;
57331;SDS011;43164;50.908;18.092;2023-11-21T06:10:43;6.90;;;1.60;;
57331;SDS011;43164;50.908;18.092;2023-11-21T06:13:13;7.70;;;1.50;;
57331;SDS011;43164;50.908;18.092;2023-11-21T06:18:47;3.90;;;1.40;;
57331;SDS011;43164;50.908;18.092;2023-11-21T06:24:52;6.50;;;1.40;;
57331;SDS011;43164;50.908;18.092;2023-11-21T06:27:22;6.70;;;1.40;;
57331;SDS011;43164;50.908;18.092;2023-11-21T06:29:55;4.40;;;1.40;;
57331;SDS011;43164;50.908;18.092;2023-11-21T06:32:26;6.00;;;1.30;;
57331;SDS011;43164;50.908;18.092;2023-11-21T06:35:01;3.90;;;1.20;;
57331;SDS011;43164;50.908;18.092;2023-11-21T06:40:32;4.90;;;1.50;;
57331;SDS011;43164;50.908;18.092;2023-11-21T06:43:00;5.90;;;1.50;;
57331;SDS011;43164;50.908;18.092;2023-11-21T06:45:27;5.20;;;1.30;;
57331;SDS011;43164;50.908;18.092;2023-11-21T06:47:55;2.90;;;1.00;;
57331;SDS011;43164;50.908;18.092;2023-11-21T06:54:14;4.10;;;1.10;;
57331;SDS011;43164;50.908;18.092;2023-11-21T06:56:45;4.90;;;1.30;;
57331;SDS011;43164;50.908;18.092;2023-11-21T06:59:17;5.00;;;1.40;;
57331;SDS011;43164;50.908;18.092;2023-11-21T07:04:35;7.10;;;2.10;;
57331;SDS011;43164;50.908;18.092;2023-11-21T07:07:03;5.30;;;1.60;;
57331;SDS011;43164;50.908;18.092;2023-11-21T07:09:33;5.60;;;1.60;;
57331;SDS011;43164;50.908;18.092;2023-11-21T07:12:00;4.90;;;1.40;;
57331;SDS011;43164;50.908;18.092;2023-11-21T07:14:46;4.60;;;1.40;;
57331;SDS011;43164;50.908;18.092;2023-11-21T07:17:16;4.30;;;1.50;;
57331;SDS011;43164;50.908;18.092;2023-11-21T07:19:45;6.60;;;1.30;;
57331;SDS011;43164;50.908;18.092;2023-11-21T07:22:13;5.30;;;1.70;;
57331;SDS011;43164;50.908;18.092;2023-11-21T07:30:45;4.20;;;1.40;;
57331;SDS011;43164;50.908;18.092;2023-11-21T07:33:26;4.90;;;1.30;;
57331;SDS011;43164;50.908;18.092;2023-11-21T07:36:08;5.20;;;1.40;;
57331;SDS011;43164;50.908;18.092;2023-11-21T07:39:00;5.10;;;1.20;;
57331;SDS011;43164;50.908;18.092;2023-11-21T07:44:27;4.10;;;1.30;;
57331;SDS011;43164;50.908;18.092;2023-11-21T07:46:57;3.30;;;1.10;;
57331;SDS011;43164;50.908;18.092;2023-11-21T07:49:25;3.30;;;1.20;;
57331;SDS011;43164;50.908;18.092;2023-11-21T07:51:54;3.20;;;1.00;;
57331;SDS011;43164;50.908;18.092;2023-11-21T07:54:22;4.10;;;1.10;;
57331;SDS011;43164;50.908;18.092;2023-11-21T07:56:53;3.10;;;1.00;;
57331;SDS011;43164;50.908;18.092;2023-11-21T07:59:27;6.40;;;1.10;;
57331;SDS011;43164;50.908;18.092;2023-11-21T08:01:55;5.20;;;1.20;;
57331;SDS011;43164;50.908;18.092;2023-11-21T08:10:01;3.60;;;1.10;;
57331;SDS011;43164;50.908;18.092;2023-11-21T08:15:54;4.30;;;1.20;;
57331;SDS011;43164;50.908;18.092;2023-11-21T08:21:15;2.80;;;1.00;;
57331;SDS011;43164;50.908;18.092;2023-11-21T08:30:19;3.70;;;1.20;;
57331;SDS011;43164;50.908;18.092;2023-11-21T08:39:22;5.00;;;1.60;;
57331;SDS011;43164;50.908;18.092;2023-11-21T08:42:06;2.70;;;0.80;;
57331;SDS011;43164;50.908;18.092;2023-11-21T08:47:26;3.20;;;0.90;;
57331;SDS011;43164;50.908;18.092;2023-11-21T08:50:03;4.70;;;1.10;;
57331;SDS011;43164;50.908;18.092;2023-11-21T08:52:33;2.90;;;0.90;;
57331;SDS011;43164;50.908;18.092;2023-11-21T08:55:01;2.80;;;1.00;;
57331;SDS011;43164;50.908;18.092;2023-11-21T08:57:35;2.60;;;1.00;;
57331;SDS011;43164;50.908;18.092;2023-11-21T09:00:03;3.50;;;0.80;;
57331;SDS011;43164;50.908;18.092;2023-11-21T09:06:26;2.50;;;0.90;;
57331;SDS011;43164;50.908;18.092;2023-11-21T09:08:56;2.70;;;1.00;;
57331;SDS011;43164;50.908;18.092;2023-11-21T09:11:28;3.30;;;0.90;;
57331;SDS011;43164;50.908;18.092;2023-11-21T09:14:34;2.50;;;0.70;;
57331;SDS011;43164;50.908;18.092;2023-11-21T09:17:04;5.30;;;0.80;;
57331;SDS011;43164;50.908;18.092;2023-11-21T09:19:44;4.40;;;0.80;;
57331;SDS011;43164;50.908;18.092;2023-11-21T09:22:45;2.70;;;0.70;;
57331;SDS011;43164;50.908;18.092;2023-11-21T09:25:22;2.20;;;0.80;;
57331;SDS011;43164;50.908;18.092;2023-11-21T09:28:06;2.70;;;0.70;;
57331;SDS011;43164;50.908;18.092;2023-11-21T09:30:35;2.30;;;0.70;;
57331;SDS011;43164;50.908;18.092;2023-11-21T09:33:17;1.60;;;0.70;;
57331;SDS011;43164;50.908;18.092;2023-11-21T09:35:56;1.20;;;0.60;;
57331;SDS011;43164;50.908;18.092;2023-11-21T09:42:00;2.50;;;0.80;;
57331;SDS011;43164;50.908;18.092;2023-11-21T09:57:47;3.40;;;1.40;;
57331;SDS011;43164;50.908;18.092;2023-11-21T10:03:19;6.10;;;1.90;;
57331;SDS011;43164;50.908;18.092;2023-11-21T10:08:46;3.90;;;1.50;;
57331;SDS011;43164;50.908;18.092;2023-11-21T10:11:24;4.30;;;1.50;;
57331;SDS011;43164;50.908;18.092;2023-11-21T10:13:59;5.40;;;2.00;;
57331;SDS011;43164;50.908;18.092;2023-11-21T10:19:41;5.30;;;2.30;;
57331;SDS011;43164;50.908;18.092;2023-11-21T10:22:38;10.50;;;4.70;;
57331;SDS011;43164;50.908;18.092;2023-11-21T10:25:14;14.40;;;8.20;;
57331;SDS011;43164;50.908;18.092;2023-11-21T10:27:46;16.10;;;9.70;;
57331;SDS011;43164;50.908;18.092;2023-11-21T10:42:48;27.10;;;15.70;;
57331;SDS011;43164;50.908;18.092;2023-11-21T10:45:19;28.40;;;15.20;;
57331;SDS011;43164;50.908;18.092;2023-11-21T10:48:14;26.10;;;14.50;;
57331;SDS011;43164;50.908;18.092;2023-11-21T10:57:58;30.90;;;15.60;;
57331;SDS011;43164;50.908;18.092;2023-11-21T11:04:09;30.30;;;16.70;;
57331;SDS011;43164;50.908;18.092;2023-11-21T11:07:24;32.80;;;17.10;;
57331;SDS011;43164;50.908;18.092;2023-11-21T11:10:11;36.60;;;17.80;;
57331;SDS011;43164;50.908;18.092;2023-11-21T11:15:55;34.90;;;18.30;;
57331;SDS011;43164;50.908;18.092;2023-11-21T11:18:38;37.70;;;18.10;;
57331;SDS011;43164;50.908;18.092;2023-11-21T11:36:58;35.30;;;17.40;;
57331;SDS011;43164;50.908;18.092;2023-11-21T11:44:52;39.10;;;16.40;;
57331;SDS011;43164;50.908;18.092;2023-11-21T11:47:28;30.30;;;14.90;;
57331;SDS011;43164;50.908;18.092;2023-11-21T11:50:22;26.10;;;13.30;;
57331;SDS011;43164;50.908;18.092;2023-11-21T11:52:52;24.60;;;12.70;;
57331;SDS011;43164;50.908;18.092;2023-11-21T12:02:29;23.60;;;12.80;;
57331;SDS011;43164;50.908;18.092;2023-11-21T12:04:57;21.50;;;10.90;;
57331;SDS011;43164;50.908;18.092;2023-11-21T12:10:27;247.70;;;153.30;;
57331;SDS011;43164;50.908;18.092;2023-11-21T12:12:56;103.70;;;72.40;;
57331;SDS011;43164;50.908;18.092;2023-11-21T12:15:25;23.30;;;12.90;;
57331;SDS011;43164;50.908;18.092;2023-11-21T12:18:36;23.30;;;11.30;;
57331;SDS011;43164;50.908;18.092;2023-11-21T12:21:05;23.20;;;12.20;;
57331;SDS011;43164;50.908;18.092;2023-11-21T12:26:40;23.50;;;11.90;;
57331;SDS011;43164;50.908;18.092;2023-11-21T12:29:17;21.10;;;10.80;;
57331;SDS011;43164;50.908;18.092;2023-11-21T12:32:07;26.40;;;13.80;;
57331;SDS011;43164;50.908;18.092;2023-11-21T12:34:35;19.00;;;9.40;;
57331;SDS011;43164;50.908;18.092;2023-11-21T12:37:05;21.20;;;10.80;;
57331;SDS011;43164;50.908;18.092;2023-11-21T12:39:40;21.90;;;10.10;;
57331;SDS011;43164;50.908;18.092;2023-11-21T12:42:09;26.30;;;12.90;;
57331;SDS011;43164;50.908;18.092;2023-11-21T12:44:38;19.20;;;9.50;;
57331;SDS011;43164;50.908;18.092;2023-11-21T12:47:08;22.50;;;10.10;;
57331;SDS011;43164;50.908;18.092;2023-11-21T12:49:38;19.30;;;10.10;;
57331;SDS011;43164;50.908;18.092;2023-11-21T12:52:06;23.40;;;11.10;;
57331;SDS011;43164;50.908;18.092;2023-11-21T12:54:34;18.90;;;9.70;;
57331;SDS011;43164;50.908;18.092;2023-11-21T12:57:02;24.80;;;12.90;;
57331;SDS011;43164;50.908;18.092;2023-11-21T12:59:35;21.80;;;10.70;;
57331;SDS011;43164;50.908;18.092;2023-11-21T13:05:04;25.80;;;11.70;;
57331;SDS011;43164;50.908;18.092;2023-11-21T13:08:08;23.60;;;11.30;;
57331;SDS011;43164;50.908;18.092;2023-11-21T13:10:39;25.80;;;12.90;;
57331;SDS011;43164;50.908;18.092;2023-11-21T13:13:09;24.30;;;12.00;;
57331;SDS011;43164;50.908;18.092;2023-11-21T13:15:49;23.10;;;11.30;;
57331;SDS011;43164;50.908;18.092;2023-11-21T13:18:18;26.10;;;13.90;;
57331;SDS011;43164;50.908;18.092;2023-11-21T13:20:54;22.90;;;12.00;;
57331;SDS011;43164;50.908;18.092;2023-11-21T13:23:29;24.70;;;12.10;;
57331;SDS011;43164;50.908;18.092;2023-11-21T13:26:31;20.60;;;10.40;;
57331;SDS011;43164;50.908;18.092;2023-11-21T13:31:52;18.40;;;10.00;;
57331;SDS011;43164;50.908;18.092;2023-11-21T13:34:22;18.70;;;10.80;;
57331;SDS011;43164;50.908;18.092;2023-11-21T13:36:55;17.80;;;9.10;;
57331;SDS011;43164;50.908;18.092;2023-11-21T13:39:28;18.50;;;9.50;;
57331;SDS011;43164;50.908;18.092;2023-11-21T13:42:05;17.70;;;9.80;;
57331;SDS011;43164;50.908;18.092;2023-11-21T13:44:40;19.20;;;10.70;;
57331;SDS011;43164;50.908;18.092;2023-11-21T13:47:16;22.10;;;11.70;;
57331;SDS011;43164;50.908;18.092;2023-11-21T13:49:44;18.40;;;9.60;;
57331;SDS011;43164;50.908;18.092;2023-11-21T13:52:15;16.40;;;9.30;;
57331;SDS011;43164;50.908;18.092;2023-11-21T13:55:03;14.20;;;6.20;;
57331;SDS011;43164;50.908;18.092;2023-11-21T13:57:33;9.40;;;4.60;;
57331;SDS011;43164;50.908;18.092;2023-11-21T14:00:01;12.20;;;5.70;;
57331;SDS011;43164;50.908;18.092;2023-11-21T14:02:41;11.30;;;6.10;;
57331;SDS011;43164;50.908;18.092;2023-11-21T14:05:10;11.20;;;6.20;;
57331;SDS011;43164;50.908;18.092;2023-11-21T14:07:51;11.10;;;6.90;;
57331;SDS011;43164;50.908;18.092;2023-11-21T14:10:20;10.20;;;6.30;;
57331;SDS011;43164;50.908;18.092;2023-11-21T14:12:53;9.00;;;5.10;;
57331;SDS011;43164;50.908;18.092;2023-11-21T14:15:21;10.20;;;5.80;;
57331;SDS011;43164;50.908;18.092;2023-11-21T14:17:49;12.60;;;7.10;;
57331;SDS011;43164;50.908;18.092;2023-11-21T14:20:23;10.90;;;7.30;;
57331;SDS011;43164;50.908;18.092;2023-11-21T14:22:51;10.30;;;5.90;;
57331;SDS011;43164;50.908;18.092;2023-11-21T14:25:18;12.90;;;7.80;;
57331;SDS011;43164;50.908;18.092;2023-11-21T14:27:48;65.80;;;48.90;;
57331;SDS011;43164;50.908;18.092;2023-11-21T14:30:23;12.40;;;8.00;;
57331;SDS011;43164;50.908;18.092;2023-11-21T14:32:53;12.20;;;8.40;;
57331;SDS011;43164;50.908;18.092;2023-11-21T14:42:06;26.30;;;21.00;;
57331;SDS011;43164;50.908;18.092;2023-11-21T14:54:36;23.90;;;20.70;;
57331;SDS011;43164;50.908;18.092;2023-11-21T14:57:19;50.80;;;40.20;;
57331;SDS011;43164;50.908;18.092;2023-11-21T14:59:50;20.60;;;15.60;;
57331;SDS011;43164;50.908;18.092;2023-11-21T15:06:10;16.80;;;12.40;;
57331;SDS011;43164;50.908;18.092;2023-11-21T15:08:53;20.40;;;15.60;;
57331;SDS011;43164;50.908;18.092;2023-11-21T15:11:37;20.40;;;16.30;;
57331;SDS011;43164;50.908;18.092;2023-11-21T15:14:26;21.00;;;14.70;;
57331;SDS011;43164;50.908;18.092;2023-11-21T15:17:00;20.50;;;15.20;;
57331;SDS011;43164;50.908;18.092;2023-11-21T15:19:31;21.50;;;17.00;;
57331;SDS011;43164;50.908;18.092;2023-11-21T15:21:59;21.40;;;16.20;;
57331;SDS011;43164;50.908;18.092;2023-11-21T15:24:27;17.30;;;12.90;;
57331;SDS011;43164;50.908;18.092;2023-11-21T15:26:57;16.00;;;11.60;;
57331;SDS011;43164;50.908;18.092;2023-11-21T15:29:26;17.30;;;12.80;;
57331;SDS011;43164;50.908;18.092;2023-11-21T15:31:55;22.10;;;16.10;;
57331;SDS011;43164;50.908;18.092;2023-11-21T15:34:32;20.20;;;15.10;;
57331;SDS011;43164;50.908;18.092;2023-11-21T15:37:07;23.60;;;17.20;;
57331;SDS011;43164;50.908;18.092;2023-11-21T15:39:39;26.60;;;19.30;;
57331;SDS011;43164;50.908;18.092;2023-11-21T15:42:11;27.90;;;20.70;;
57331;SDS011;43164;50.908;18.092;2023-11-21T15:44:39;26.40;;;19.30;;
57331;SDS011;43164;50.908;18.092;2023-11-21T15:47:14;25.90;;;18.40;;
57331;SDS011;43164;50.908;18.092;2023-11-21T15:49:44;36.60;;;25.30;;
57331;SDS011;43164;50.908;18.092;2023-11-21T15:52:13;31.70;;;24.20;;
57331;SDS011;43164;50.908;18.092;2023-11-21T15:54:44;36.50;;;25.90;;
57331;SDS011;43164;50.908;18.092;2023-11-21T15:57:15;36.60;;;26.80;;
57331;SDS011;43164;50.908;18.092;2023-11-21T16:00:00;34.20;;;24.00;;
57331;SDS011;43164;50.908;18.092;2023-11-21T16:02:29;28.60;;;19.70;;
57331;SDS011;43164;50.908;18.092;2023-11-21T16:04:58;28.40;;;20.90;;
57331;SDS011;43164;50.908;18.092;2023-11-21T16:07:26;35.30;;;25.40;;
57331;SDS011;43164;50.908;18.092;2023-11-21T16:09:54;39.10;;;30.40;;
57331;SDS011;43164;50.908;18.092;2023-11-21T16:12:25;31.50;;;22.40;;
57331;SDS011;43164;50.908;18.092;2023-11-21T16:14:54;27.00;;;18.80;;
57331;SDS011;43164;50.908;18.092;2023-11-21T16:17:22;42.70;;;28.60;;
57331;SDS011;43164;50.908;18.092;2023-11-21T16:19:50;30.80;;;21.20;;
57331;SDS011;43164;50.908;18.092;2023-11-21T16:22:26;25.90;;;18.20;;
57331;SDS011;43164;50.908;18.092;2023-11-21T16:24:55;31.40;;;22.60;;
57331;SDS011;43164;50.908;18.092;2023-11-21T16:27:33;25.10;;;18.90;;
57331;SDS011;43164;50.908;18.092;2023-11-21T16:32:51;31.60;;;20.70;;
57331;SDS011;43164;50.908;18.092;2023-11-21T16:35:20;42.90;;;30.50;;
57331;SDS011;43164;50.908;18.092;2023-11-21T16:37:47;30.50;;;21.00;;
57331;SDS011;43164;50.908;18.092;2023-11-21T16:40:32;33.90;;;24.70;;
57331;SDS011;43164;50.908;18.092;2023-11-21T16:43:03;27.60;;;19.80;;
57331;SDS011;43164;50.908;18.092;2023-11-21T16:48:31;35.40;;;22.10;;
57331;SDS011;43164;50.908;18.092;2023-11-21T16:51:04;37.70;;;28.10;;
57331;SDS011;43164;50.908;18.092;2023-11-21T16:53:43;25.70;;;18.50;;
57331;SDS011;43164;50.908;18.092;2023-11-21T17:02:07;26.30;;;18.30;;
57331;SDS011;43164;50.908;18.092;2023-11-21T17:07:39;30.20;;;20.20;;
57331;SDS011;43164;50.908;18.092;2023-11-21T17:10:16;40.50;;;29.60;;
57331;SDS011;43164;50.908;18.092;2023-11-21T17:12:51;50.10;;;35.30;;
57331;SDS011;43164;50.908;18.092;2023-11-21T17:15:24;61.70;;;38.70;;
57331;SDS011;43164;50.908;18.092;2023-11-21T17:23:33;39.30;;;29.10;;
57331;SDS011;43164;50.908;18.092;2023-11-21T17:26:19;54.10;;;41.40;;
57331;SDS011;43164;50.908;18.092;2023-11-21T17:28:46;42.60;;;30.00;;
57331;SDS011;43164;50.908;18.092;2023-11-21T17:31:22;27.80;;;19.00;;
57331;SDS011;43164;50.908;18.092;2023-11-21T17:33:54;29.20;;;19.40;;
57331;SDS011;43164;50.908;18.092;2023-11-21T17:39:13;29.50;;;21.00;;
57331;SDS011;43164;50.908;18.092;2023-11-21T17:41:42;28.70;;;20.00;;
57331;SDS011;43164;50.908;18.092;2023-11-21T17:46:57;31.10;;;22.00;;
57331;SDS011;43164;50.908;18.092;2023-11-21T17:52:15;66.70;;;50.20;;
57331;SDS011;43164;50.908;18.092;2023-11-21T17:54:45;31.90;;;22.70;;
57331;SDS011;43164;50.908;18.092;2023-11-21T17:57:18;33.00;;;23.20;;
57331;SDS011;43164;50.908;18.092;2023-11-21T18:00:05;38.60;;;25.90;;
57331;SDS011;43164;50.908;18.092;2023-11-21T18:02:37;33.40;;;23.10;;
57331;SDS011;43164;50.908;18.092;2023-11-21T18:05:09;40.80;;;29.00;;
57331;SDS011;43164;50.908;18.092;2023-11-21T18:07:52;42.50;;;31.40;;
57331;SDS011;43164;50.908;18.092;2023-11-21T18:10:34;42.80;;;30.60;;
57331;SDS011;43164;50.908;18.092;2023-11-21T18:13:09;40.10;;;27.50;;
57331;SDS011;43164;50.908;18.092;2023-11-21T18:15:43;32.00;;;22.70;;
57331;SDS011;43164;50.908;18.092;2023-11-21T18:18:15;35.40;;;24.90;;
57331;SDS011;43164;50.908;18.092;2023-11-21T18:23:35;39.50;;;29.80;;
57331;SDS011;43164;50.908;18.092;2023-11-21T18:26:04;34.90;;;25.10;;
57331;SDS011;43164;50.908;18.092;2023-11-21T18:28:37;32.50;;;22.80;;
57331;SDS011;43164;50.908;18.092;2023-11-21T18:31:11;32.30;;;23.30;;
57331;SDS011;43164;50.908;18.092;2023-11-21T18:33:50;38.10;;;27.00;;
57331;SDS011;43164;50.908;18.092;2023-11-21T18:36:24;40.60;;;28.70;;
57331;SDS011;43164;50.908;18.092;2023-11-21T18:38:56;39.90;;;27.20;;
57331;SDS011;43164;50.908;18.092;2023-11-21T18:41:30;37.80;;;26.90;;
57331;SDS011;43164;50.908;18.092;2023-11-21T18:44:02;38.60;;;28.00;;
57331;SDS011;43164;50.908;18.092;2023-11-21T18:46:40;39.90;;;28.60;;
57331;SDS011;43164;50.908;18.092;2023-11-21T18:49:11;42.40;;;30.10;;
57331;SDS011;43164;50.908;18.092;2023-11-21T18:51:45;61.60;;;48.20;;
57331;SDS011;43164;50.908;18.092;2023-11-21T18:54:24;42.00;;;31.20;;
57331;SDS011;43164;50.908;18.092;2023-11-21T18:56:55;42.60;;;28.60;;
57331;SDS011;43164;50.908;18.092;2023-11-21T18:59:28;31.90;;;22.70;;
57331;SDS011;43164;50.908;18.092;2023-11-21T19:01:59;32.10;;;22.30;;
57331;SDS011;43164;50.908;18.092;2023-11-21T19:04:31;32.30;;;23.00;;
57331;SDS011;43164;50.908;18.092;2023-11-21T19:07:11;34.30;;;25.20;;
57331;SDS011;43164;50.908;18.092;2023-11-21T19:09:56;44.20;;;30.70;;
57331;SDS011;43164;50.908;18.092;2023-11-21T19:12:25;38.70;;;28.10;;
57331;SDS011;43164;50.908;18.092;2023-11-21T19:15:00;47.20;;;33.10;;
57331;SDS011;43164;50.908;18.092;2023-11-21T19:17:38;46.00;;;33.40;;